sensor_id;sensor_type;location;lat;lon;timestamp;P1;durP1;ratioP1;P2;durP2;ratioP2
67514;SDS011;60646;55.802;37.032;2023-05-07T00:00:21;4.75;;;1.77;;
67514;SDS011;60646;55.802;37.032;2023-05-07T00:02:46;3.38;;;1.45;;
67514;SDS011;60646;55.802;37.032;2023-05-07T00:05:12;2.40;;;1.63;;
67514;SDS011;60646;55.802;37.032;2023-05-07T00:07:39;2.72;;;1.58;;
67514;SDS011;60646;55.802;37.032;2023-05-07T00:10:06;6.03;;;1.40;;
67514;SDS011;60646;55.802;37.032;2023-05-07T00:12:32;2.70;;;1.45;;
67514;SDS011;60646;55.802;37.032;2023-05-07T00:15:04;3.10;;;1.60;;
67514;SDS011;60646;55.802;37.032;2023-05-07T00:17:33;3.03;;;1.70;;
67514;SDS011;60646;55.802;37.032;2023-05-07T00:19:59;2.88;;;1.50;;
67514;SDS011;60646;55.802;37.032;2023-05-07T00:22:32;2.17;;;1.40;;
67514;SDS011;60646;55.802;37.032;2023-05-07T00:24:58;3.45;;;1.73;;
67514;SDS011;60646;55.802;37.032;2023-05-07T00:27:25;2.25;;;1.30;;
67514;SDS011;60646;55.802;37.032;2023-05-07T00:29:51;2.08;;;1.42;;
67514;SDS011;60646;55.802;37.032;2023-05-07T00:32:17;2.28;;;1.50;;
67514;SDS011;60646;55.802;37.032;2023-05-07T00:34:43;2.20;;;1.55;;
67514;SDS011;60646;55.802;37.032;2023-05-07T00:37:09;3.95;;;1.67;;
67514;SDS011;60646;55.802;37.032;2023-05-07T00:39:35;2.42;;;1.50;;
67514;SDS011;60646;55.802;37.032;2023-05-07T00:42:02;2.30;;;1.65;;
67514;SDS011;60646;55.802;37.032;2023-05-07T00:44:28;2.90;;;1.35;;
67514;SDS011;60646;55.802;37.032;2023-05-07T00:46:56;2.53;;;1.50;;
67514;SDS011;60646;55.802;37.032;2023-05-07T00:49:25;2.70;;;1.70;;
67514;SDS011;60646;55.802;37.032;2023-05-07T00:52:01;2.00;;;1.40;;
67514;SDS011;60646;55.802;37.032;2023-05-07T00:54:27;2.28;;;1.42;;
67514;SDS011;60646;55.802;37.032;2023-05-07T00:56:53;2.50;;;1.52;;
67514;SDS011;60646;55.802;37.032;2023-05-07T00:59:20;1.92;;;1.20;;
67514;SDS011;60646;55.802;37.032;2023-05-07T01:01:46;3.67;;;1.60;;
67514;SDS011;60646;55.802;37.032;2023-05-07T01:04:11;3.15;;;1.50;;
67514;SDS011;60646;55.802;37.032;2023-05-07T01:06:37;1.85;;;1.40;;
67514;SDS011;60646;55.802;37.032;2023-05-07T01:09:04;3.88;;;1.33;;
67514;SDS011;60646;55.802;37.032;2023-05-07T01:11:30;3.83;;;1.48;;
67514;SDS011;60646;55.802;37.032;2023-05-07T01:13:56;2.72;;;1.60;;
67514;SDS011;60646;55.802;37.032;2023-05-07T01:16:24;3.00;;;1.60;;
67514;SDS011;60646;55.802;37.032;2023-05-07T01:18:51;3.17;;;1.95;;
67514;SDS011;60646;55.802;37.032;2023-05-07T01:21:17;1.90;;;1.50;;
67514;SDS011;60646;55.802;37.032;2023-05-07T01:23:44;4.45;;;1.55;;
67514;SDS011;60646;55.802;37.032;2023-05-07T01:26:10;1.90;;;1.30;;
67514;SDS011;60646;55.802;37.032;2023-05-07T01:28:36;3.92;;;1.60;;
67514;SDS011;60646;55.802;37.032;2023-05-07T01:31:02;3.65;;;1.85;;
67514;SDS011;60646;55.802;37.032;2023-05-07T01:33:32;4.47;;;1.60;;
67514;SDS011;60646;55.802;37.032;2023-05-07T01:35:59;2.33;;;1.30;;
67514;SDS011;60646;55.802;37.032;2023-05-07T01:38:27;3.40;;;1.67;;
67514;SDS011;60646;55.802;37.032;2023-05-07T01:40:54;2.50;;;1.30;;
67514;SDS011;60646;55.802;37.032;2023-05-07T01:43:21;2.72;;;1.20;;
67514;SDS011;60646;55.802;37.032;2023-05-07T01:45:46;2.50;;;1.73;;
67514;SDS011;60646;55.802;37.032;2023-05-07T01:48:14;3.38;;;1.48;;
67514;SDS011;60646;55.802;37.032;2023-05-07T01:50:44;2.13;;;1.40;;
67514;SDS011;60646;55.802;37.032;2023-05-07T01:53:10;4.00;;;1.40;;
67514;SDS011;60646;55.802;37.032;2023-05-07T01:55:36;1.95;;;1.38;;
67514;SDS011;60646;55.802;37.032;2023-05-07T01:58:03;2.75;;;1.50;;
67514;SDS011;60646;55.802;37.032;2023-05-07T02:00:29;2.85;;;1.80;;
67514;SDS011;60646;55.802;37.032;2023-05-07T02:02:55;3.30;;;2.00;;
67514;SDS011;60646;55.802;37.032;2023-05-07T02:05:36;3.45;;;1.40;;
67514;SDS011;60646;55.802;37.032;2023-05-07T02:08:09;2.38;;;1.50;;
67514;SDS011;60646;55.802;37.032;2023-05-07T02:10:35;5.13;;;1.80;;
67514;SDS011;60646;55.802;37.032;2023-05-07T02:13:01;4.63;;;2.13;;
67514;SDS011;60646;55.802;37.032;2023-05-07T02:15:27;25.45;;;6.70;;
67514;SDS011;60646;55.802;37.032;2023-05-07T02:17:58;17.33;;;5.95;;
67514;SDS011;60646;55.802;37.032;2023-05-07T02:20:26;8.77;;;3.20;;
67514;SDS011;60646;55.802;37.032;2023-05-07T02:23:12;144.95;;;31.27;;
67514;SDS011;60646;55.802;37.032;2023-05-07T02:25:38;144.90;;;33.45;;
67514;SDS011;60646;55.802;37.032;2023-05-07T02:28:04;74.57;;;15.90;;
67514;SDS011;60646;55.802;37.032;2023-05-07T02:30:46;117.25;;;22.92;;
67514;SDS011;60646;55.802;37.032;2023-05-07T02:33:12;141.88;;;30.95;;
67514;SDS011;60646;55.802;37.032;2023-05-07T02:35:40;256.75;;;50.67;;
67514;SDS011;60646;55.802;37.032;2023-05-07T02:38:06;274.73;;;60.38;;
67514;SDS011;60646;55.802;37.032;2023-05-07T02:40:33;338.25;;;74.13;;
67514;SDS011;60646;55.802;37.032;2023-05-07T02:42:59;182.25;;;47.60;;
67514;SDS011;60646;55.802;37.032;2023-05-07T02:45:25;90.43;;;21.98;;
67514;SDS011;60646;55.802;37.032;2023-05-07T02:47:53;51.00;;;13.27;;
67514;SDS011;60646;55.802;37.032;2023-05-07T02:50:19;39.63;;;9.52;;
67514;SDS011;60646;55.802;37.032;2023-05-07T02:52:45;20.15;;;6.95;;
67514;SDS011;60646;55.802;37.032;2023-05-07T02:55:11;13.65;;;4.03;;
67514;SDS011;60646;55.802;37.032;2023-05-07T02:57:36;11.32;;;3.35;;
67514;SDS011;60646;55.802;37.032;2023-05-07T03:00:10;7.75;;;2.50;;
67514;SDS011;60646;55.802;37.032;2023-05-07T03:02:40;4.38;;;2.13;;
67514;SDS011;60646;55.802;37.032;2023-05-07T03:05:06;3.70;;;1.85;;
67514;SDS011;60646;55.802;37.032;2023-05-07T03:07:32;2.47;;;1.70;;
67514;SDS011;60646;55.802;37.032;2023-05-07T03:09:57;4.20;;;1.60;;
67514;SDS011;60646;55.802;37.032;2023-05-07T03:12:23;3.92;;;1.83;;
67514;SDS011;60646;55.802;37.032;2023-05-07T03:14:49;2.47;;;1.63;;
67514;SDS011;60646;55.802;37.032;2023-05-07T03:17:15;3.88;;;1.90;;
67514;SDS011;60646;55.802;37.032;2023-05-07T03:19:41;3.83;;;1.50;;
67514;SDS011;60646;55.802;37.032;2023-05-07T03:22:07;1.70;;;1.30;;
67514;SDS011;60646;55.802;37.032;2023-05-07T03:24:33;2.28;;;1.45;;
67514;SDS011;60646;55.802;37.032;2023-05-07T03:26:59;2.33;;;1.50;;
67514;SDS011;60646;55.802;37.032;2023-05-07T03:29:27;3.55;;;1.52;;
67514;SDS011;60646;55.802;37.032;2023-05-07T03:31:53;2.60;;;1.50;;
67514;SDS011;60646;55.802;37.032;2023-05-07T03:34:19;3.17;;;1.50;;
67514;SDS011;60646;55.802;37.032;2023-05-07T03:36:48;2.00;;;1.30;;
67514;SDS011;60646;55.802;37.032;2023-05-07T03:39:14;3.00;;;1.83;;
67514;SDS011;60646;55.802;37.032;2023-05-07T03:41:40;2.58;;;1.50;;
67514;SDS011;60646;55.802;37.032;2023-05-07T03:44:07;2.75;;;1.60;;
67514;SDS011;60646;55.802;37.032;2023-05-07T03:46:33;2.15;;;1.40;;
67514;SDS011;60646;55.802;37.032;2023-05-07T03:48:59;2.47;;;1.40;;
67514;SDS011;60646;55.802;37.032;2023-05-07T03:51:26;3.92;;;1.77;;
67514;SDS011;60646;55.802;37.032;2023-05-07T03:53:52;4.50;;;1.92;;
67514;SDS011;60646;55.802;37.032;2023-05-07T03:56:19;3.08;;;1.60;;
67514;SDS011;60646;55.802;37.032;2023-05-07T03:58:49;3.72;;;1.55;;
67514;SDS011;60646;55.802;37.032;2023-05-07T04:01:15;1.70;;;1.30;;
67514;SDS011;60646;55.802;37.032;2023-05-07T04:03:41;2.65;;;1.70;;
67514;SDS011;60646;55.802;37.032;2023-05-07T04:06:06;2.70;;;1.48;;
67514;SDS011;60646;55.802;37.032;2023-05-07T04:08:34;3.38;;;1.63;;
67514;SDS011;60646;55.802;37.032;2023-05-07T04:11:00;2.63;;;1.33;;
67514;SDS011;60646;55.802;37.032;2023-05-07T04:13:29;2.35;;;1.58;;
67514;SDS011;60646;55.802;37.032;2023-05-07T04:15:56;1.83;;;1.40;;
67514;SDS011;60646;55.802;37.032;2023-05-07T04:18:24;2.40;;;1.50;;
67514;SDS011;60646;55.802;37.032;2023-05-07T04:20:51;3.03;;;1.30;;
67514;SDS011;60646;55.802;37.032;2023-05-07T04:23:17;2.67;;;1.30;;
67514;SDS011;60646;55.802;37.032;2023-05-07T04:25:44;2.92;;;1.80;;
67514;SDS011;60646;55.802;37.032;2023-05-07T04:28:19;2.15;;;1.08;;
67514;SDS011;60646;55.802;37.032;2023-05-07T04:30:46;3.08;;;1.35;;
67514;SDS011;60646;55.802;37.032;2023-05-07T04:33:13;2.53;;;1.52;;
67514;SDS011;60646;55.802;37.032;2023-05-07T04:35:42;1.98;;;1.50;;
67514;SDS011;60646;55.802;37.032;2023-05-07T04:38:08;1.85;;;1.10;;
67514;SDS011;60646;55.802;37.032;2023-05-07T04:40:35;1.77;;;1.23;;
67514;SDS011;60646;55.802;37.032;2023-05-07T04:43:02;6.10;;;1.30;;
67514;SDS011;60646;55.802;37.032;2023-05-07T04:45:31;2.53;;;1.40;;
67514;SDS011;60646;55.802;37.032;2023-05-07T04:47:58;2.40;;;1.17;;
67514;SDS011;60646;55.802;37.032;2023-05-07T04:50:24;2.63;;;1.13;;
67514;SDS011;60646;55.802;37.032;2023-05-07T04:52:55;1.50;;;1.20;;
67514;SDS011;60646;55.802;37.032;2023-05-07T04:55:22;2.08;;;1.20;;
67514;SDS011;60646;55.802;37.032;2023-05-07T04:57:49;1.70;;;1.20;;
67514;SDS011;60646;55.802;37.032;2023-05-07T05:00:16;1.35;;;1.02;;
67514;SDS011;60646;55.802;37.032;2023-05-07T05:02:47;3.17;;;1.10;;
67514;SDS011;60646;55.802;37.032;2023-05-07T05:05:17;1.65;;;1.10;;
67514;SDS011;60646;55.802;37.032;2023-05-07T05:07:44;1.85;;;1.42;;
67514;SDS011;60646;55.802;37.032;2023-05-07T05:10:11;2.28;;;1.00;;
67514;SDS011;60646;55.802;37.032;2023-05-07T05:12:39;1.45;;;1.00;;
67514;SDS011;60646;55.802;37.032;2023-05-07T05:15:05;1.80;;;1.10;;
67514;SDS011;60646;55.802;37.032;2023-05-07T05:17:32;0.80;;;0.80;;
67514;SDS011;60646;55.802;37.032;2023-05-07T05:20:01;2.13;;;0.90;;
67514;SDS011;60646;55.802;37.032;2023-05-07T05:22:29;1.58;;;0.95;;
67514;SDS011;60646;55.802;37.032;2023-05-07T05:24:57;1.33;;;0.90;;
67514;SDS011;60646;55.802;37.032;2023-05-07T05:27:23;1.58;;;1.00;;
67514;SDS011;60646;55.802;37.032;2023-05-07T05:29:50;1.50;;;0.95;;
67514;SDS011;60646;55.802;37.032;2023-05-07T05:32:15;1.40;;;0.98;;
67514;SDS011;60646;55.802;37.032;2023-05-07T05:34:42;1.38;;;0.98;;
67514;SDS011;60646;55.802;37.032;2023-05-07T05:37:08;1.38;;;0.98;;
67514;SDS011;60646;55.802;37.032;2023-05-07T05:39:35;1.17;;;0.90;;
67514;SDS011;60646;55.802;37.032;2023-05-07T05:42:02;2.35;;;0.90;;
67514;SDS011;60646;55.802;37.032;2023-05-07T05:44:28;1.65;;;0.90;;
67514;SDS011;60646;55.802;37.032;2023-05-07T05:46:53;2.13;;;1.08;;
67514;SDS011;60646;55.802;37.032;2023-05-07T05:49:25;1.53;;;0.77;;
67514;SDS011;60646;55.802;37.032;2023-05-07T05:51:51;1.13;;;0.80;;
67514;SDS011;60646;55.802;37.032;2023-05-07T05:54:17;2.15;;;1.00;;
67514;SDS011;60646;55.802;37.032;2023-05-07T05:56:43;1.13;;;0.90;;
67514;SDS011;60646;55.802;37.032;2023-05-07T05:59:09;1.92;;;0.85;;
67514;SDS011;60646;55.802;37.032;2023-05-07T06:04:25;1.50;;;0.82;;
67514;SDS011;60646;55.802;37.032;2023-05-07T06:06:51;2.17;;;1.00;;
67514;SDS011;60646;55.802;37.032;2023-05-07T06:09:17;1.35;;;0.80;;
67514;SDS011;60646;55.802;37.032;2023-05-07T06:11:43;1.52;;;0.90;;
67514;SDS011;60646;55.802;37.032;2023-05-07T06:14:11;1.67;;;1.10;;
67514;SDS011;60646;55.802;37.032;2023-05-07T06:16:37;1.73;;;1.00;;
67514;SDS011;60646;55.802;37.032;2023-05-07T06:19:05;1.88;;;1.02;;
67514;SDS011;60646;55.802;37.032;2023-05-07T06:21:31;1.60;;;1.02;;
67514;SDS011;60646;55.802;37.032;2023-05-07T06:23:57;1.10;;;0.95;;
67514;SDS011;60646;55.802;37.032;2023-05-07T06:26:23;4.30;;;1.52;;
67514;SDS011;60646;55.802;37.032;2023-05-07T06:28:49;4.25;;;1.20;;
67514;SDS011;60646;55.802;37.032;2023-05-07T06:31:19;2.15;;;1.33;;
67514;SDS011;60646;55.802;37.032;2023-05-07T06:33:55;3.53;;;1.10;;
67514;SDS011;60646;55.802;37.032;2023-05-07T06:36:28;7.25;;;2.88;;
67514;SDS011;60646;55.802;37.032;2023-05-07T06:38:57;7.75;;;2.47;;
67514;SDS011;60646;55.802;37.032;2023-05-07T06:41:22;3.03;;;1.40;;
67514;SDS011;60646;55.802;37.032;2023-05-07T06:43:49;1.83;;;1.10;;
67514;SDS011;60646;55.802;37.032;2023-05-07T06:46:44;1.85;;;1.13;;
67514;SDS011;60646;55.802;37.032;2023-05-07T06:49:15;2.28;;;1.08;;
67514;SDS011;60646;55.802;37.032;2023-05-07T06:51:42;2.25;;;0.90;;
67514;SDS011;60646;55.802;37.032;2023-05-07T06:54:07;1.20;;;0.80;;
67514;SDS011;60646;55.802;37.032;2023-05-07T06:56:36;0.88;;;0.70;;
67514;SDS011;60646;55.802;37.032;2023-05-07T06:59:03;0.93;;;0.77;;
67514;SDS011;60646;55.802;37.032;2023-05-07T07:01:34;1.50;;;1.00;;
67514;SDS011;60646;55.802;37.032;2023-05-07T07:04:01;1.27;;;0.90;;
67514;SDS011;60646;55.802;37.032;2023-05-07T07:06:29;0.93;;;0.73;;
67514;SDS011;60646;55.802;37.032;2023-05-07T07:08:58;0.60;;;0.60;;
67514;SDS011;60646;55.802;37.032;2023-05-07T07:11:25;1.35;;;0.90;;
67514;SDS011;60646;55.802;37.032;2023-05-07T07:13:52;1.90;;;1.08;;
67514;SDS011;60646;55.802;37.032;2023-05-07T07:16:20;1.75;;;1.10;;
67514;SDS011;60646;55.802;37.032;2023-05-07T07:18:47;3.03;;;1.52;;
67514;SDS011;60646;55.802;37.032;2023-05-07T07:21:13;1.73;;;1.00;;
67514;SDS011;60646;55.802;37.032;2023-05-07T07:23:39;1.10;;;0.85;;
67514;SDS011;60646;55.802;37.032;2023-05-07T07:26:05;0.60;;;0.60;;
67514;SDS011;60646;55.802;37.032;2023-05-07T07:28:32;2.33;;;1.38;;
67514;SDS011;60646;55.802;37.032;2023-05-07T07:30:58;2.65;;;1.27;;
67514;SDS011;60646;55.802;37.032;2023-05-07T07:33:24;2.45;;;0.82;;
67514;SDS011;60646;55.802;37.032;2023-05-07T07:35:50;2.28;;;1.40;;
67514;SDS011;60646;55.802;37.032;2023-05-07T07:38:16;2.42;;;1.20;;
67514;SDS011;60646;55.802;37.032;2023-05-07T07:40:42;1.55;;;0.98;;
67514;SDS011;60646;55.802;37.032;2023-05-07T07:43:10;2.80;;;1.20;;
67514;SDS011;60646;55.802;37.032;2023-05-07T07:45:36;1.02;;;0.85;;
67514;SDS011;60646;55.802;37.032;2023-05-07T07:48:02;1.08;;;0.80;;
67514;SDS011;60646;55.802;37.032;2023-05-07T07:50:32;3.75;;;1.00;;
67514;SDS011;60646;55.802;37.032;2023-05-07T07:52:58;1.10;;;0.98;;
67514;SDS011;60646;55.802;37.032;2023-05-07T07:55:24;0.93;;;0.70;;
67514;SDS011;60646;55.802;37.032;2023-05-07T07:57:53;0.80;;;0.55;;
67514;SDS011;60646;55.802;37.032;2023-05-07T08:00:20;0.80;;;0.70;;
67514;SDS011;60646;55.802;37.032;2023-05-07T08:02:51;1.08;;;0.82;;
67514;SDS011;60646;55.802;37.032;2023-05-07T08:05:24;2.28;;;0.75;;
67514;SDS011;60646;55.802;37.032;2023-05-07T08:07:51;1.65;;;1.00;;
67514;SDS011;60646;55.802;37.032;2023-05-07T08:10:22;1.05;;;0.77;;
67514;SDS011;60646;55.802;37.032;2023-05-07T08:12:52;1.23;;;0.80;;
67514;SDS011;60646;55.802;37.032;2023-05-07T08:15:18;1.13;;;0.95;;
67514;SDS011;60646;55.802;37.032;2023-05-07T08:17:45;0.70;;;0.60;;
67514;SDS011;60646;55.802;37.032;2023-05-07T08:20:11;1.80;;;0.93;;
67514;SDS011;60646;55.802;37.032;2023-05-07T08:22:37;5.00;;;1.50;;
67514;SDS011;60646;55.802;37.032;2023-05-07T08:25:04;4.80;;;1.30;;
67514;SDS011;60646;55.802;37.032;2023-05-07T08:27:32;2.53;;;1.10;;
67514;SDS011;60646;55.802;37.032;2023-05-07T08:29:58;3.00;;;1.20;;
67514;SDS011;60646;55.802;37.032;2023-05-07T08:32:24;2.17;;;1.20;;
67514;SDS011;60646;55.802;37.032;2023-05-07T08:34:51;1.30;;;1.10;;
67514;SDS011;60646;55.802;37.032;2023-05-07T08:37:17;1.52;;;1.13;;
67514;SDS011;60646;55.802;37.032;2023-05-07T08:39:44;1.15;;;0.80;;
67514;SDS011;60646;55.802;37.032;2023-05-07T08:42:17;1.48;;;0.70;;
67514;SDS011;60646;55.802;37.032;2023-05-07T08:44:44;2.15;;;0.93;;
67514;SDS011;60646;55.802;37.032;2023-05-07T08:50:14;1.10;;;0.80;;
67514;SDS011;60646;55.802;37.032;2023-05-07T08:52:48;1.65;;;0.70;;
67514;SDS011;60646;55.802;37.032;2023-05-07T08:55:16;1.10;;;0.70;;
67514;SDS011;60646;55.802;37.032;2023-05-07T08:57:43;1.85;;;1.42;;
67514;SDS011;60646;55.802;37.032;2023-05-07T09:00:10;1.30;;;0.90;;
67514;SDS011;60646;55.802;37.032;2023-05-07T09:02:38;1.35;;;0.70;;
67514;SDS011;60646;55.802;37.032;2023-05-07T09:05:06;1.58;;;0.77;;
67514;SDS011;60646;55.802;37.032;2023-05-07T09:07:33;0.85;;;0.77;;
67514;SDS011;60646;55.802;37.032;2023-05-07T09:10:02;1.58;;;0.60;;
67514;SDS011;60646;55.802;37.032;2023-05-07T09:12:31;0.75;;;0.50;;
67514;SDS011;60646;55.802;37.032;2023-05-07T09:14:58;2.45;;;1.13;;
67514;SDS011;60646;55.802;37.032;2023-05-07T09:17:25;2.50;;;0.77;;
67514;SDS011;60646;55.802;37.032;2023-05-07T09:19:52;2.70;;;1.00;;
67514;SDS011;60646;55.802;37.032;2023-05-07T09:22:19;0.80;;;0.70;;
67514;SDS011;60646;55.802;37.032;2023-05-07T09:24:55;1.10;;;0.82;;
67514;SDS011;60646;55.802;37.032;2023-05-07T09:27:25;0.98;;;0.70;;
67514;SDS011;60646;55.802;37.032;2023-05-07T09:29:52;2.17;;;1.38;;
67514;SDS011;60646;55.802;37.032;2023-05-07T09:32:18;1.13;;;0.80;;
67514;SDS011;60646;55.802;37.032;2023-05-07T09:34:45;3.58;;;1.63;;
67514;SDS011;60646;55.802;37.032;2023-05-07T09:37:14;4.50;;;2.20;;
67514;SDS011;60646;55.802;37.032;2023-05-07T09:39:41;3.83;;;1.40;;
67514;SDS011;60646;55.802;37.032;2023-05-07T09:42:09;1.20;;;1.00;;
67514;SDS011;60646;55.802;37.032;2023-05-07T09:44:55;3.03;;;1.42;;
67514;SDS011;60646;55.802;37.032;2023-05-07T09:47:25;1.83;;;1.00;;
67514;SDS011;60646;55.802;37.032;2023-05-07T09:49:57;0.85;;;0.70;;
67514;SDS011;60646;55.802;37.032;2023-05-07T09:52:30;0.82;;;0.70;;
67514;SDS011;60646;55.802;37.032;2023-05-07T09:55:01;1.42;;;0.90;;
67514;SDS011;60646;55.802;37.032;2023-05-07T09:57:31;1.58;;;1.00;;
67514;SDS011;60646;55.802;37.032;2023-05-07T10:00:02;1.90;;;1.00;;
67514;SDS011;60646;55.802;37.032;2023-05-07T10:02:47;0.77;;;0.68;;
67514;SDS011;60646;55.802;37.032;2023-05-07T10:05:18;1.33;;;0.88;;
67514;SDS011;60646;55.802;37.032;2023-05-07T10:07:49;4.80;;;2.45;;
67514;SDS011;60646;55.802;37.032;2023-05-07T10:10:20;2.65;;;1.42;;
67514;SDS011;60646;55.802;37.032;2023-05-07T10:12:47;1.17;;;0.88;;
67514;SDS011;60646;55.802;37.032;2023-05-07T10:15:23;1.55;;;0.88;;
67514;SDS011;60646;55.802;37.032;2023-05-07T10:17:53;1.10;;;0.93;;
67514;SDS011;60646;55.802;37.032;2023-05-07T10:20:22;3.35;;;0.90;;
67514;SDS011;60646;55.802;37.032;2023-05-07T10:22:48;2.72;;;0.88;;
67514;SDS011;60646;55.802;37.032;2023-05-07T10:25:28;3.10;;;0.80;;
67514;SDS011;60646;55.802;37.032;2023-05-07T10:28:04;0.95;;;0.70;;
67514;SDS011;60646;55.802;37.032;2023-05-07T10:33:22;1.08;;;0.70;;
67514;SDS011;60646;55.802;37.032;2023-05-07T10:35:52;0.95;;;0.63;;
67514;SDS011;60646;55.802;37.032;2023-05-07T10:38:24;13.07;;;7.43;;
67514;SDS011;60646;55.802;37.032;2023-05-07T10:41:00;5.03;;;3.38;;
67514;SDS011;60646;55.802;37.032;2023-05-07T10:43:40;2.75;;;1.40;;
67514;SDS011;60646;55.802;37.032;2023-05-07T10:51:36;1.52;;;0.85;;
67514;SDS011;60646;55.802;37.032;2023-05-07T10:54:19;1.38;;;0.80;;
67514;SDS011;60646;55.802;37.032;2023-05-07T10:56:54;2.72;;;0.85;;
67514;SDS011;60646;55.802;37.032;2023-05-07T10:59:32;0.93;;;0.77;;
67514;SDS011;60646;55.802;37.032;2023-05-07T11:02:12;1.23;;;0.68;;
67514;SDS011;60646;55.802;37.032;2023-05-07T11:05:18;0.75;;;0.68;;
67514;SDS011;60646;55.802;37.032;2023-05-07T11:08:23;0.98;;;0.75;;
67514;SDS011;60646;55.802;37.032;2023-05-07T11:10:56;1.10;;;0.73;;
67514;SDS011;60646;55.802;37.032;2023-05-07T11:16:47;1.27;;;0.73;;
67514;SDS011;60646;55.802;37.032;2023-05-07T11:20:21;1.02;;;0.88;;
67514;SDS011;60646;55.802;37.032;2023-05-07T11:22:46;2.67;;;0.90;;
67514;SDS011;60646;55.802;37.032;2023-05-07T11:25:24;1.58;;;0.63;;
67514;SDS011;60646;55.802;37.032;2023-05-07T11:28:11;0.70;;;0.68;;
67514;SDS011;60646;55.802;37.032;2023-05-07T11:33:13;1.00;;;0.60;;
67514;SDS011;60646;55.802;37.032;2023-05-07T11:35:43;2.17;;;0.80;;
67514;SDS011;60646;55.802;37.032;2023-05-07T11:38:12;1.25;;;0.80;;
67514;SDS011;60646;55.802;37.032;2023-05-07T11:40:52;1.05;;;0.70;;
67514;SDS011;60646;55.802;37.032;2023-05-07T11:43:20;1.20;;;0.68;;
67514;SDS011;60646;55.802;37.032;2023-05-07T11:45:46;2.35;;;0.75;;
67514;SDS011;60646;55.802;37.032;2023-05-07T11:48:12;0.77;;;0.60;;
67514;SDS011;60646;55.802;37.032;2023-05-07T11:50:49;1.75;;;0.90;;
67514;SDS011;60646;55.802;37.032;2023-05-07T11:53:17;1.10;;;0.70;;
67514;SDS011;60646;55.802;37.032;2023-05-07T11:55:43;0.60;;;0.60;;
67514;SDS011;60646;55.802;37.032;2023-05-07T11:58:10;1.20;;;0.80;;
67514;SDS011;60646;55.802;37.032;2023-05-07T12:00:47;1.55;;;0.80;;
67514;SDS011;60646;55.802;37.032;2023-05-07T12:03:17;1.40;;;0.73;;
67514;SDS011;60646;55.802;37.032;2023-05-07T12:05:46;0.70;;;0.60;;
67514;SDS011;60646;55.802;37.032;2023-05-07T12:08:19;0.90;;;0.70;;
67514;SDS011;60646;55.802;37.032;2023-05-07T12:10:47;1.48;;;0.70;;
67514;SDS011;60646;55.802;37.032;2023-05-07T12:13:18;0.68;;;0.60;;
67514;SDS011;60646;55.802;37.032;2023-05-07T12:15:45;1.25;;;0.70;;
67514;SDS011;60646;55.802;37.032;2023-05-07T12:18:11;2.78;;;0.70;;
67514;SDS011;60646;55.802;37.032;2023-05-07T12:20:38;1.02;;;0.80;;
67514;SDS011;60646;55.802;37.032;2023-05-07T12:23:05;1.02;;;0.88;;
67514;SDS011;60646;55.802;37.032;2023-05-07T12:25:31;2.30;;;0.88;;
67514;SDS011;60646;55.802;37.032;2023-05-07T12:28:00;1.77;;;0.90;;
67514;SDS011;60646;55.802;37.032;2023-05-07T12:30:26;2.17;;;0.88;;
67514;SDS011;60646;55.802;37.032;2023-05-07T12:32:53;1.05;;;0.80;;
67514;SDS011;60646;55.802;37.032;2023-05-07T12:35:35;1.80;;;0.90;;
67514;SDS011;60646;55.802;37.032;2023-05-07T12:38:08;1.02;;;0.70;;
67514;SDS011;60646;55.802;37.032;2023-05-07T12:43:05;1.88;;;0.82;;
67514;SDS011;60646;55.802;37.032;2023-05-07T12:45:31;2.25;;;0.80;;
67514;SDS011;60646;55.802;37.032;2023-05-07T12:48:00;1.20;;;0.80;;
67514;SDS011;60646;55.802;37.032;2023-05-07T12:50:30;1.95;;;0.90;;
67514;SDS011;60646;55.802;37.032;2023-05-07T12:52:57;1.42;;;0.68;;
67514;SDS011;60646;55.802;37.032;2023-05-07T12:55:23;0.93;;;0.70;;
67514;SDS011;60646;55.802;37.032;2023-05-07T12:57:49;0.73;;;0.60;;
67514;SDS011;60646;55.802;37.032;2023-05-07T13:00:32;0.55;;;0.50;;
67514;SDS011;60646;55.802;37.032;2023-05-07T13:03:02;1.13;;;0.70;;
67514;SDS011;60646;55.802;37.032;2023-05-07T13:05:28;0.80;;;0.60;;
67514;SDS011;60646;55.802;37.032;2023-05-07T13:07:54;1.20;;;0.80;;
67514;SDS011;60646;55.802;37.032;2023-05-07T13:10:23;0.88;;;0.73;;
67514;SDS011;60646;55.802;37.032;2023-05-07T13:12:49;0.90;;;0.68;;
67514;SDS011;60646;55.802;37.032;2023-05-07T13:15:15;1.10;;;0.60;;
67514;SDS011;60646;55.802;37.032;2023-05-07T13:17:42;1.02;;;0.80;;
67514;SDS011;60646;55.802;37.032;2023-05-07T13:20:11;0.90;;;0.65;;
67514;SDS011;60646;55.802;37.032;2023-05-07T13:22:39;1.13;;;0.70;;
67514;SDS011;60646;55.802;37.032;2023-05-07T13:25:05;1.90;;;1.02;;
67514;SDS011;60646;55.802;37.032;2023-05-07T13:27:32;0.90;;;0.80;;
67514;SDS011;60646;55.802;37.032;2023-05-07T13:30:01;1.40;;;1.05;;
67514;SDS011;60646;55.802;37.032;2023-05-07T13:32:29;0.98;;;0.73;;
67514;SDS011;60646;55.802;37.032;2023-05-07T13:34:56;0.90;;;0.70;;
67514;SDS011;60646;55.802;37.032;2023-05-07T13:37:26;0.90;;;0.75;;
67514;SDS011;60646;55.802;37.032;2023-05-07T13:39:54;1.52;;;0.88;;
67514;SDS011;60646;55.802;37.032;2023-05-07T13:42:20;3.00;;;0.90;;
67514;SDS011;60646;55.802;37.032;2023-05-07T13:44:46;1.13;;;0.90;;
67514;SDS011;60646;55.802;37.032;2023-05-07T13:47:13;0.77;;;0.60;;
67514;SDS011;60646;55.802;37.032;2023-05-07T13:49:42;1.70;;;1.10;;
67514;SDS011;60646;55.802;37.032;2023-05-07T13:52:08;0.70;;;0.52;;
67514;SDS011;60646;55.802;37.032;2023-05-07T13:54:34;1.42;;;0.82;;
67514;SDS011;60646;55.802;37.032;2023-05-07T13:57:00;1.42;;;0.70;;
67514;SDS011;60646;55.802;37.032;2023-05-07T13:59:27;1.05;;;0.90;;
67514;SDS011;60646;55.802;37.032;2023-05-07T14:02:11;0.95;;;0.68;;
67514;SDS011;60646;55.802;37.032;2023-05-07T14:04:37;0.73;;;0.60;;
67514;SDS011;60646;55.802;37.032;2023-05-07T14:07:03;1.20;;;0.73;;
67514;SDS011;60646;55.802;37.032;2023-05-07T14:09:28;2.70;;;0.50;;
67514;SDS011;60646;55.802;37.032;2023-05-07T14:11:54;0.65;;;0.65;;
67514;SDS011;60646;55.802;37.032;2023-05-07T14:14:21;0.85;;;0.70;;
67514;SDS011;60646;55.802;37.032;2023-05-07T14:16:46;1.05;;;0.70;;
67514;SDS011;60646;55.802;37.032;2023-05-07T14:19:12;1.15;;;0.80;;
67514;SDS011;60646;55.802;37.032;2023-05-07T14:21:38;0.75;;;0.70;;
67514;SDS011;60646;55.802;37.032;2023-05-07T14:24:05;1.48;;;0.82;;
67514;SDS011;60646;55.802;37.032;2023-05-07T14:26:32;1.38;;;0.82;;
67514;SDS011;60646;55.802;37.032;2023-05-07T14:28:58;1.05;;;0.85;;
67514;SDS011;60646;55.802;37.032;2023-05-07T14:31:24;1.27;;;0.82;;
67514;SDS011;60646;55.802;37.032;2023-05-07T14:33:50;1.40;;;0.90;;
67514;SDS011;60646;55.802;37.032;2023-05-07T14:36:17;2.60;;;1.20;;
67514;SDS011;60646;55.802;37.032;2023-05-07T14:38:45;2.22;;;1.00;;
67514;SDS011;60646;55.802;37.032;2023-05-07T14:41:11;1.55;;;1.00;;
67514;SDS011;60646;55.802;37.032;2023-05-07T14:43:37;0.80;;;0.63;;
67514;SDS011;60646;55.802;37.032;2023-05-07T14:46:03;1.15;;;0.95;;
67514;SDS011;60646;55.802;37.032;2023-05-07T14:48:28;2.05;;;1.00;;
67514;SDS011;60646;55.802;37.032;2023-05-07T14:50:54;2.03;;;1.20;;
67514;SDS011;60646;55.802;37.032;2023-05-07T14:53:21;2.08;;;1.00;;
67514;SDS011;60646;55.802;37.032;2023-05-07T14:55:48;1.50;;;1.00;;
67514;SDS011;60646;55.802;37.032;2023-05-07T14:58:14;1.75;;;1.10;;
67514;SDS011;60646;55.802;37.032;2023-05-07T15:00:40;1.73;;;0.98;;
67514;SDS011;60646;55.802;37.032;2023-05-07T15:03:07;1.38;;;0.90;;